Time;durP1;ratioP1;P1;durP2;ratioP2;P2;SDS_P1;SDS_P2;PMS_P1;PMS_P2;Temp;Humidity;BMP_temperature;BMP_pressure;BME280_temperature;BME280_humidity;BME280_pressure;Samples;Min_cycle;Max_cycle;Signal;HPM_P1;HPM_P2
2023/01/23 00:02:07;;;;;;;;;;;23.70;99.90;;;;;;5088136;28;19916;-69
2023/01/23 00:04:33;;;;;;;;;;;23.80;99.90;;;;;;5075610;28;19913;-75
2023/01/23 00:07:02;;;;;;;;;;;23.90;99.90;;;;;;5087859;28;19934;-76
2023/01/23 00:09:28;;;;;;;;;;;24.00;99.90;;;;;;5087438;28;20353;-70
2023/01/23 00:11:55;;;;;;;;;;;24.10;99.90;;;;;;5079208;28;20280;-71
2023/01/23 00:14:22;;;;;;;;;;;24.30;99.90;;;;;;5086768;28;19919;-72
2023/01/23 00:16:48;;;;;;;;;;;24.50;99.90;;;;;;5073457;28;20012;-74
2023/01/23 00:19:15;;;;;;;;;;;24.80;99.90;;;;;;5072854;28;19920;-70
2023/01/23 00:21:42;;;;;;;;;;;24.80;99.90;;;;;;5074848;28;19920;-70
2023/01/23 00:24:10;;;;;;;;;;;24.80;99.90;;;;;;5073891;28;19939;-73
2023/01/23 00:26:36;;;;;;;;;;;24.80;99.90;;;;;;5074789;28;19919;-71
2023/01/23 00:29:03;;;;;;;;;;;24.60;99.90;;;;;;5083937;28;20535;-72
2023/01/23 00:31:32;;;;;;;;;;;24.50;99.90;;;;;;5073355;28;20000;-72
2023/01/23 00:34:00;;;;;;;;;;;24.30;99.90;;;;;;5072888;28;19999;-74
2023/01/23 00:36:28;;;;;;;;;;;24.10;99.90;;;;;;5072860;28;19909;-73
2023/01/23 00:38:55;;;;;;;;;;;23.90;99.90;;;;;;5073352;28;19947;-69
2023/01/23 00:41:22;;;;;;;;;;;23.80;99.90;;;;;;5073815;28;19927;-70
2023/01/23 00:43:50;;;;;;;;;;;23.60;99.90;;;;;;5075222;28;20019;-70
2023/01/23 00:46:18;;;;;;;;;;;23.50;99.90;;;;;;5075471;28;19912;-73
2023/01/23 00:48:45;;;;;;;;;;;23.50;99.90;;;;;;5074492;28;19928;-70
2023/01/23 00:51:11;;;;;;;;;;;23.50;99.90;;;;;;5074555;28;20396;-69
2023/01/23 00:53:38;;;;;;;;;;;23.50;99.90;;;;;;5077063;28;19913;-75
2023/01/23 00:56:05;;;;;;;;;;;23.60;99.90;;;;;;5076704;28;19946;-70
2023/01/23 00:58:32;;;;;;;;;;;23.70;99.90;;;;;;5075182;28;19999;-69
2023/01/23 01:00:58;;;;;;;;;;;23.70;99.90;;;;;;5075484;28;19932;-76
2023/01/23 01:03:25;;;;;;;;;;;23.70;99.90;;;;;;5073690;28;19921;-75
2023/01/23 01:05:52;;;;;;;;;;;23.70;99.90;;;;;;5073638;28;19970;-70
2023/01/23 01:08:19;;;;;;;;;;;23.60;99.90;;;;;;5078009;28;20268;-71
2023/01/23 01:10:46;;;;;;;;;;;23.50;99.90;;;;;;5075387;28;19912;-70
2023/01/23 01:13:13;;;;;;;;;;;23.40;99.90;;;;;;5076688;28;19912;-72
2023/01/23 01:15:40;;;;;;;;;;;23.40;99.90;;;;;;5076543;28;20377;-76
2023/01/23 01:18:06;;;;;;;;;;;23.30;99.90;;;;;;5077253;28;20003;-72
2023/01/23 01:20:33;;;;;;;;;;;23.20;99.90;;;;;;5078805;28;19973;-75
2023/01/23 01:22:59;;;;;;;;;;;23.20;99.90;;;;;;5092301;28;19916;-72
2023/01/23 01:25:26;;;;;;;;;;;23.00;99.90;;;;;;5095612;28;19912;-73
2023/01/23 01:27:54;;;;;;;;;;;23.00;99.90;;;;;;5095808;28;19908;-69
2023/01/23 01:30:21;;;;;;;;;;;22.90;99.90;;;;;;5095960;28;19908;-71
2023/01/23 01:32:48;;;;;;;;;;;23.00;99.90;;;;;;5093723;28;20127;-70
2023/01/23 01:35:14;;;;;;;;;;;23.00;99.90;;;;;;5093223;28;21092;-70
2023/01/23 01:37:41;;;;;;;;;;;23.00;99.90;;;;;;5094821;28;19912;-68
2023/01/23 01:40:11;;;;;;;;;;;23.10;99.90;;;;;;5093643;28;20318;-71
2023/01/23 01:42:46;;;;;;;;;;;23.10;99.90;;;;;;5093415;28;20306;-70
2023/01/23 01:45:31;;;;;;;;;;;23.20;99.90;;;;;;5094121;28;19915;-72
2023/01/23 01:47:57;;;;;;;;;;;23.20;99.90;;;;;;5094324;28;20311;-70
2023/01/23 01:50:24;;;;;;;;;;;23.10;99.90;;;;;;5093072;28;19909;-71
2023/01/23 01:52:51;;;;;;;;;;;23.10;99.90;;;;;;5092775;28;19914;-70
2023/01/23 01:55:17;;;;;;;;;;;23.10;99.90;;;;;;5095208;28;19908;-68
2023/01/23 01:57:47;;;;;;;;;;;23.10;99.90;;;;;;5092297;28;19957;-71
2023/01/23 02:00:15;;;;;;;;;;;23.10;99.90;;;;;;5092143;28;20003;-70
2023/01/23 02:02:44;;;;;;;;;;;23.20;99.90;;;;;;5092460;28;19912;-71
2023/01/23 02:05:16;;;;;;;;;;;23.30;99.90;;;;;;5091420;28;19908;-70
2023/01/23 02:07:53;;;;;;;;;;;23.40;99.90;;;;;;5093723;28;20353;-70
2023/01/23 02:10:20;;;;;;;;;;;23.50;99.90;;;;;;5092357;28;20012;-70
2023/01/23 02:12:48;;;;;;;;;;;23.70;99.90;;;;;;5092524;28;19950;-71
2023/01/23 02:15:15;;;;;;;;;;;24.00;99.90;;;;;;5093774;28;19912;-74
2023/01/23 02:17:43;;;;;;;;;;;24.10;99.90;;;;;;5093742;28;20360;-72
2023/01/23 02:20:10;;;;;;;;;;;24.30;99.90;;;;;;5092905;28;19985;-74
2023/01/23 02:22:45;;;;;;;;;;;24.30;99.90;;;;;;5093987;28;19908;-70
2023/01/23 02:25:25;;;;;;;;;;;24.50;99.90;;;;;;5093786;28;19993;-74
2023/01/23 02:27:52;;;;;;;;;;;24.90;99.90;;;;;;5094098;28;20377;-69
2023/01/23 02:30:19;;;;;;;;;;;25.30;99.90;;;;;;5091693;28;19978;-70
2023/01/23 02:32:46;;;;;;;;;;;25.70;99.90;;;;;;5091829;28;19934;-71
2023/01/23 02:35:21;;;;;;;;;;;25.90;99.90;;;;;;5091821;28;19920;-71
2023/01/23 02:37:48;;;;;;;;;;;26.10;99.90;;;;;;5091842;28;19912;-70
2023/01/23 02:40:15;;;;;;;;;;;26.50;99.80;;;;;;5093431;28;19912;-69
2023/01/23 02:42:43;;;;;;;;;;;26.80;99.00;;;;;;5095624;28;19908;-70
2023/01/23 02:45:10;;;;;;;;;;;27.00;98.40;;;;;;5095848;28;19912;-70
2023/01/23 02:47:36;;;;;;;;;;;27.10;98.00;;;;;;5095641;28;19950;-76
2023/01/23 02:50:03;;;;;;;;;;;27.00;97.60;;;;;;5096441;28;19983;-70
2023/01/23 02:52:30;;;;;;;;;;;27.10;97.30;;;;;;5096155;28;20007;-72
2023/01/23 02:54:57;;;;;;;;;;;26.90;97.70;;;;;;5095951;28;20003;-75
2023/01/23 02:57:24;;;;;;;;;;;26.90;96.80;;;;;;5095959;28;19979;-69
2023/01/23 03:02:37;;;;;;;;;;;27.10;96.70;;;;;;5095765;28;19961;-69
2023/01/23 03:05:03;;;;;;;;;;;27.20;96.50;;;;;;5095429;28;19908;-69
2023/01/23 03:07:30;;;;;;;;;;;27.20;95.90;;;;;;5095611;28;19908;-70
2023/01/23 03:09:56;;;;;;;;;;;27.20;96.00;;;;;;5095601;28;19961;-69
2023/01/23 03:12:23;;;;;;;;;;;27.00;95.90;;;;;;5095617;28;19908;-71
2023/01/23 03:14:53;;;;;;;;;;;26.90;95.80;;;;;;5095431;28;19916;-70
2023/01/23 03:17:20;;;;;;;;;;;26.80;95.70;;;;;;5095247;28;19957;-70
2023/01/23 03:19:47;;;;;;;;;;;26.70;96.10;;;;;;5095019;28;20288;-69
2023/01/23 03:22:14;;;;;;;;;;;26.60;96.50;;;;;;5094901;28;19912;-70
2023/01/23 03:24:40;;;;;;;;;;;26.60;96.80;;;;;;5094705;28;20300;-70
2023/01/23 03:27:07;;;;;;;;;;;26.60;96.70;;;;;;5094720;28;20337;-71
2023/01/23 03:32:20;;;;;;;;;;;27.00;96.40;;;;;;5095045;28;19999;-70
2023/01/23 03:34:47;;;;;;;;;;;27.60;95.70;;;;;;5094950;28;20430;-70
2023/01/23 03:37:14;;;;;;;;;;;28.30;94.90;;;;;;5095223;28;19915;-76
2023/01/23 03:42:25;;;;;;;;;;;30.00;92.30;;;;;;5075096;28;20022;-71
2023/01/23 03:44:52;;;;;;;;;;;30.50;91.40;;;;;;5073157;28;20348;-69
2023/01/23 03:47:19;;;;;;;;;;;31.60;89.90;;;;;;5074243;28;19952;-70
2023/01/23 03:49:46;;;;;;;;;;;32.60;86.90;;;;;;5074361;28;19909;-70
2023/01/23 03:52:12;;;;;;;;;;;33.60;84.10;;;;;;5093270;28;19915;-70
2023/01/23 03:54:41;;;;;;;;;;;34.50;81.80;;;;;;5094905;28;19908;-72
2023/01/23 03:57:07;;;;;;;;;;;35.00;78.20;;;;;;5093305;28;19908;-69
2023/01/23 03:59:34;;;;;;;;;;;35.60;80.70;;;;;;5094446;28;19999;-70
2023/01/23 04:02:03;;;;;;;;;;;36.40;77.90;;;;;;5094312;28;20308;-75
2023/01/23 04:04:31;;;;;;;;;;;36.90;74.00;;;;;;5094386;28;19912;-71
2023/01/23 04:06:57;;;;;;;;;;;37.20;73.10;;;;;;5094437;28;19912;-72
2023/01/23 04:09:26;;;;;;;;;;;37.20;72.40;;;;;;5094480;28;19912;-75
2023/01/23 04:11:54;;;;;;;;;;;37.50;71.20;;;;;;5094082;28;20003;-71
2023/01/23 04:14:21;;;;;;;;;;;37.60;71.50;;;;;;5094261;28;19908;-71
2023/01/23 04:16:48;;;;;;;;;;;37.90;70.30;;;;;;5093112;28;19912;-71
2023/01/23 04:19:18;;;;;;;;;;;37.70;70.00;;;;;;5094061;28;19912;-71
2023/01/23 04:21:45;;;;;;;;;;;38.40;69.80;;;;;;5093485;28;19927;-70
2023/01/23 04:24:12;;;;;;;;;;;38.10;68.70;;;;;;5093721;28;19915;-68
2023/01/23 04:26:38;;;;;;;;;;;37.60;68.90;;;;;;5093643;28;19908;-70
2023/01/23 04:29:05;;;;;;;;;;;37.90;69.50;;;;;;5093870;28;19946;-72
2023/01/23 04:31:32;;;;;;;;;;;38.10;68.30;;;;;;5093911;28;19927;-70
2023/01/23 04:33:58;;;;;;;;;;;38.30;67.70;;;;;;5093453;28;19920;-71
2023/01/23 04:36:25;;;;;;;;;;;37.70;67.60;;;;;;5093463;28;19916;-71
2023/01/23 04:38:52;;;;;;;;;;;37.50;68.40;;;;;;5093474;28;20353;-71
2023/01/23 04:41:22;;;;;;;;;;;37.70;69.70;;;;;;5093196;28;19924;-75
2023/01/23 04:43:49;;;;;;;;;;;38.20;68.90;;;;;;5092147;28;19908;-70
2023/01/23 04:46:16;;;;;;;;;;;39.10;66.60;;;;;;5093483;28;19950;-75
2023/01/23 04:48:42;;;;;;;;;;;39.20;66.20;;;;;;5093616;28;19940;-70
2023/01/23 04:51:09;;;;;;;;;;;38.90;66.30;;;;;;5093418;28;20288;-69
2023/01/23 04:53:36;;;;;;;;;;;37.40;68.80;;;;;;5093409;28;19915;-72
2023/01/23 04:56:02;;;;;;;;;;;36.20;71.10;;;;;;5093310;28;19935;-71
2023/01/23 04:58:29;;;;;;;;;;;35.00;72.90;;;;;;5093231;28;19915;-70
2023/01/23 05:01:06;;;;;;;;;;;34.10;75.10;;;;;;5093195;28;20474;-71
2023/01/23 05:03:33;;;;;;;;;;;33.80;77.40;;;;;;5092841;28;20369;-73
2023/01/23 05:06:00;;;;;;;;;;;34.50;75.10;;;;;;5093419;28;19931;-73
2023/01/23 05:08:27;;;;;;;;;;;35.20;73.40;;;;;;5093121;28;19912;-72
2023/01/23 05:10:53;;;;;;;;;;;36.10;72.80;;;;;;5093422;28;20418;-70
2023/01/23 05:13:20;;;;;;;;;;;36.80;70.90;;;;;;5093106;28;19908;-71
2023/01/23 05:15:47;;;;;;;;;;;35.90;72.00;;;;;;5093233;28;19908;-76
2023/01/23 05:18:13;;;;;;;;;;;36.20;72.30;;;;;;5094784;28;20360;-74
2023/01/23 05:20:40;;;;;;;;;;;37.00;71.80;;;;;;5093229;28;19912;-70
2023/01/23 05:23:06;;;;;;;;;;;37.60;69.80;;;;;;5093451;28;20315;-77
2023/01/23 05:25:33;;;;;;;;;;;37.90;68.70;;;;;;5093244;28;19958;-79
2023/01/23 05:28:00;;;;;;;;;;;37.80;68.40;;;;;;5092944;28;20420;-71
2023/01/23 05:30:26;;;;;;;;;;;37.70;68.30;;;;;;5088905;28;19912;-73
2023/01/23 05:32:53;;;;;;;;;;;37.40;68.20;;;;;;5068319;28;20273;-75
2023/01/23 05:35:19;;;;;;;;;;;37.10;67.90;;;;;;5082576;28;19967;-73
2023/01/23 05:37:52;;;;;;;;;;;36.10;69.30;;;;;;5087513;28;19920;-76
2023/01/23 05:40:20;;;;;;;;;;;35.10;71.10;;;;;;5080809;28;19990;-77
2023/01/23 05:42:47;;;;;;;;;;;34.60;72.90;;;;;;5087364;28;20420;-73
2023/01/23 05:45:14;;;;;;;;;;;34.60;73.40;;;;;;5089789;28;19986;-71
2023/01/23 05:47:40;;;;;;;;;;;35.90;70.70;;;;;;5085650;28;20347;-69
2023/01/23 05:50:07;;;;;;;;;;;36.50;68.60;;;;;;5080567;28;19911;-66
2023/01/23 05:52:35;;;;;;;;;;;36.80;67.80;;;;;;5091489;28;19912;-67
2023/01/23 05:55:01;;;;;;;;;;;36.60;68.70;;;;;;5091544;28;20050;-68
2023/01/23 05:57:28;;;;;;;;;;;35.90;69.80;;;;;;5091324;28;19953;-67
2023/01/23 05:59:55;;;;;;;;;;;35.50;70.40;;;;;;5091929;28;19910;-68
2023/01/23 06:02:21;;;;;;;;;;;35.20;70.50;;;;;;5088323;28;19920;-68
2023/01/23 06:04:48;;;;;;;;;;;35.20;71.40;;;;;;5091139;28;19916;-67
2023/01/23 06:07:15;;;;;;;;;;;34.50;72.40;;;;;;5089408;28;19912;-67
2023/01/23 06:09:42;;;;;;;;;;;33.60;74.90;;;;;;5090238;28;19908;-67
2023/01/23 06:12:09;;;;;;;;;;;32.30;76.80;;;;;;5089754;28;19930;-68
2023/01/23 06:14:36;;;;;;;;;;;31.30;79.50;;;;;;5090561;28;19930;-68
2023/01/23 06:17:03;;;;;;;;;;;30.20;81.30;;;;;;5093613;28;19912;-68
2023/01/23 06:19:29;;;;;;;;;;;29.60;82.80;;;;;;5094452;28;20000;-67
2023/01/23 06:21:56;;;;;;;;;;;28.70;84.90;;;;;;5093178;28;20006;-67
2023/01/23 06:24:23;;;;;;;;;;;28.30;86.20;;;;;;5093153;28;19930;-67
2023/01/23 06:26:50;;;;;;;;;;;27.90;86.10;;;;;;5093101;28;19908;-67
2023/01/23 06:29:16;;;;;;;;;;;27.40;87.70;;;;;;5093543;28;19995;-66
2023/01/23 06:31:44;;;;;;;;;;;27.00;88.70;;;;;;5092811;28;19908;-67
2023/01/23 06:34:11;;;;;;;;;;;26.70;90.20;;;;;;5093853;28;20045;-67
2023/01/23 06:36:39;;;;;;;;;;;26.60;90.80;;;;;;5093244;28;19909;-65
2023/01/23 06:39:06;;;;;;;;;;;26.60;90.60;;;;;;5094174;28;19965;-66
2023/01/23 06:41:32;;;;;;;;;;;26.70;90.20;;;;;;5089931;28;19917;-67
2023/01/23 06:43:59;;;;;;;;;;;26.70;90.40;;;;;;5094549;28;20276;-65
2023/01/23 06:46:25;;;;;;;;;;;26.90;90.30;;;;;;5094604;28;19912;-66
2023/01/23 06:48:53;;;;;;;;;;;26.90;90.50;;;;;;5092972;28;19912;-67
2023/01/23 06:51:19;;;;;;;;;;;26.80;90.90;;;;;;5083530;28;20024;-68
2023/01/23 06:53:46;;;;;;;;;;;26.90;91.10;;;;;;5093403;28;20003;-64
2023/01/23 06:56:12;;;;;;;;;;;27.00;90.80;;;;;;5091877;28;19905;-65
2023/01/23 06:58:42;;;;;;;;;;;26.80;91.10;;;;;;5094674;28;19908;-62
2023/01/23 07:01:10;;;;;;;;;;;26.60;91.00;;;;;;5094746;28;19970;-65
2023/01/23 07:03:37;;;;;;;;;;;26.40;91.50;;;;;;5095109;28;19912;-64
2023/01/23 07:06:05;;;;;;;;;;;26.40;91.60;;;;;;5090479;28;19994;-64
2023/01/23 07:08:32;;;;;;;;;;;26.20;92.50;;;;;;5075286;28;19970;-66
2023/01/23 07:10:59;;;;;;;;;;;26.30;92.50;;;;;;5088858;28;19915;-66
2023/01/23 07:13:26;;;;;;;;;;;26.50;92.20;;;;;;5091450;28;19920;-66
2023/01/23 07:15:53;;;;;;;;;;;26.60;91.90;;;;;;5083382;28;19999;-64
2023/01/23 07:18:19;;;;;;;;;;;26.30;92.30;;;;;;5094431;28;19908;-63
2023/01/23 07:20:48;;;;;;;;;;;26.20;92.80;;;;;;5094309;28;19927;-65
2023/01/23 07:23:15;;;;;;;;;;;26.30;92.80;;;;;;5094453;28;20333;-65
2023/01/23 07:25:42;;;;;;;;;;;26.40;92.40;;;;;;5094382;28;19920;-66
2023/01/23 07:28:08;;;;;;;;;;;26.40;92.60;;;;;;5093925;28;19950;-66
2023/01/23 07:30:35;;;;;;;;;;;26.40;93.10;;;;;;5094184;28;19973;-65
2023/01/23 07:33:02;;;;;;;;;;;26.50;92.90;;;;;;5094021;28;19916;-65
2023/01/23 07:35:29;;;;;;;;;;;26.50;92.90;;;;;;5093878;28;19919;-63
2023/01/23 07:37:56;;;;;;;;;;;26.40;92.80;;;;;;5094131;28;20444;-65
2023/01/23 07:40:22;;;;;;;;;;;26.50;92.60;;;;;;5093572;28;20375;-64
2023/01/23 07:42:49;;;;;;;;;;;26.20;92.90;;;;;;5094165;28;20022;-64
2023/01/23 07:45:16;;;;;;;;;;;26.00;93.30;;;;;;5091024;28;19995;-68
2023/01/23 07:47:42;;;;;;;;;;;25.90;93.40;;;;;;5073508;28;19913;-64
2023/01/23 07:50:10;;;;;;;;;;;25.80;93.40;;;;;;5082532;28;20025;-67
2023/01/23 07:52:37;;;;;;;;;;;25.70;93.40;;;;;;5079673;28;19909;-64
2023/01/23 07:55:04;;;;;;;;;;;25.70;93.90;;;;;;5093551;28;19919;-63
2023/01/23 07:57:32;;;;;;;;;;;25.70;94.50;;;;;;5093385;28;19998;-64
2023/01/23 07:59:59;;;;;;;;;;;25.70;94.90;;;;;;5092624;28;20301;-68
2023/01/23 08:02:26;;;;;;;;;;;25.60;95.30;;;;;;5081544;28;19927;-66
2023/01/23 08:04:52;;;;;;;;;;;25.50;95.60;;;;;;5091881;28;19915;-66
2023/01/23 08:07:19;;;;;;;;;;;25.40;95.50;;;;;;5087519;28;19913;-66
2023/01/23 08:09:46;;;;;;;;;;;25.30;95.70;;;;;;5092320;28;19913;-65
2023/01/23 08:12:12;;;;;;;;;;;25.10;95.80;;;;;;5080117;28;19908;-68
2023/01/23 08:14:40;;;;;;;;;;;25.10;96.20;;;;;;5072764;28;19912;-65
2023/01/23 08:17:06;;;;;;;;;;;25.00;96.40;;;;;;5073366;28;19908;-67
2023/01/23 08:19:33;;;;;;;;;;;24.90;96.80;;;;;;5075104;28;19913;-67
2023/01/23 08:21:59;;;;;;;;;;;24.90;97.30;;;;;;5081083;28;19916;-68
2023/01/23 08:24:26;;;;;;;;;;;24.90;97.70;;;;;;5090794;28;20422;-69
2023/01/23 08:26:53;;;;;;;;;;;24.80;97.80;;;;;;5091551;28;20002;-64
2023/01/23 08:29:19;;;;;;;;;;;24.70;97.70;;;;;;5091469;28;19951;-65
2023/01/23 08:31:46;;;;;;;;;;;24.60;97.60;;;;;;5081170;28;19908;-65
2023/01/23 08:34:12;;;;;;;;;;;24.50;97.40;;;;;;5092230;28;20389;-64
2023/01/23 08:36:39;;;;;;;;;;;24.40;97.20;;;;;;5093064;28;19908;-65
2023/01/23 08:39:06;;;;;;;;;;;24.30;97.50;;;;;;5092949;28;19908;-65
2023/01/23 08:41:36;;;;;;;;;;;24.30;97.70;;;;;;5082549;28;20208;-66
2023/01/23 08:44:03;;;;;;;;;;;24.20;97.70;;;;;;5072741;28;19919;-64
2023/01/23 08:46:29;;;;;;;;;;;24.20;97.70;;;;;;5072768;28;19908;-65
2023/01/23 08:48:56;;;;;;;;;;;24.10;97.70;;;;;;5072853;28;20003;-66
2023/01/23 08:51:24;;;;;;;;;;;24.10;97.90;;;;;;5073806;28;20305;-68
2023/01/23 08:53:51;;;;;;;;;;;24.00;98.10;;;;;;5077262;28;19925;-68
2023/01/23 08:56:19;;;;;;;;;;;23.90;98.20;;;;;;5092804;28;20007;-67
2023/01/23 08:58:46;;;;;;;;;;;23.80;98.20;;;;;;5092877;28;20273;-67
2023/01/23 09:01:18;;;;;;;;;;;23.70;98.50;;;;;;5092866;28;19916;-69
2023/01/23 09:03:44;;;;;;;;;;;23.70;98.60;;;;;;5090243;28;20017;-69
2023/01/23 09:06:11;;;;;;;;;;;23.70;98.90;;;;;;5072719;28;20450;-67
2023/01/23 09:08:38;;;;;;;;;;;23.50;99.00;;;;;;5072703;28;19908;-67
2023/01/23 09:11:05;;;;;;;;;;;23.50;99.30;;;;;;5086959;28;19908;-65
2023/01/23 09:13:32;;;;;;;;;;;23.40;99.60;;;;;;5092857;28;19919;-67
2023/01/23 09:15:59;;;;;;;;;;;23.30;99.80;;;;;;5072758;28;19916;-66
2023/01/23 09:18:25;;;;;;;;;;;23.30;99.90;;;;;;5083767;28;19916;-65
2023/01/23 09:20:53;;;;;;;;;;;23.20;99.90;;;;;;5092455;28;19916;-67
2023/01/23 09:23:20;;;;;;;;;;;23.20;99.90;;;;;;5092708;28;20003;-67
2023/01/23 09:25:47;;;;;;;;;;;23.00;99.90;;;;;;5073323;28;19912;-64
2023/01/23 09:28:13;;;;;;;;;;;23.00;99.90;;;;;;5072007;28;19934;-65
2023/01/23 09:30:41;;;;;;;;;;;22.90;99.90;;;;;;5082781;28;19904;-67
2023/01/23 09:33:08;;;;;;;;;;;22.90;99.90;;;;;;5092079;28;19912;-64
2023/01/23 09:35:34;;;;;;;;;;;22.80;99.90;;;;;;5091077;28;19920;-67
2023/01/23 09:38:05;;;;;;;;;;;22.80;99.90;;;;;;5092049;28;20327;-67
2023/01/23 09:40:36;;;;;;;;;;;22.70;99.90;;;;;;5092012;28;20418;-67
2023/01/23 09:43:10;;;;;;;;;;;22.70;99.90;;;;;;5088040;28;19951;-66
2023/01/23 09:45:38;;;;;;;;;;;22.70;99.90;;;;;;5091322;28;19923;-68
2023/01/23 09:48:14;;;;;;;;;;;22.70;99.90;;;;;;5091569;28;19953;-66
2023/01/23 09:50:48;;;;;;;;;;;22.70;99.90;;;;;;5081537;28;19947;-67
2023/01/23 09:53:17;;;;;;;;;;;22.70;99.90;;;;;;5091036;28;19908;-67
2023/01/23 09:55:47;;;;;;;;;;;22.60;99.90;;;;;;5086327;28;20288;-67
2023/01/23 09:58:20;;;;;;;;;;;22.60;99.90;;;;;;5090130;28;20362;-66
2023/01/23 10:00:47;;;;;;;;;;;22.60;99.90;;;;;;5074992;28;19974;-65
2023/01/23 10:03:15;;;;;;;;;;;22.60;99.90;;;;;;5081012;28;19915;-67
2023/01/23 10:05:48;;;;;;;;;;;22.60;99.90;;;;;;5091556;28;19916;-65
2023/01/23 10:08:17;;;;;;;;;;;22.60;99.90;;;;;;5091790;28;19914;-66
2023/01/23 10:10:47;;;;;;;;;;;22.60;99.90;;;;;;5075768;28;19916;-67
2023/01/23 10:13:15;;;;;;;;;;;22.60;99.90;;;;;;5082359;28;19944;-67
2023/01/23 10:15:51;;;;;;;;;;;22.60;99.90;;;;;;5071352;28;20369;-68
2023/01/23 10:18:44;;;;;;;;;;;22.50;99.90;;;;;;5071523;28;19909;-65
2023/01/23 10:21:11;;;;;;;;;;;22.50;99.90;;;;;;5069402;28;19943;-66
2023/01/23 10:23:46;;;;;;;;;;;22.40;99.90;;;;;;5084881;28;20424;-67
2023/01/23 10:26:24;;;;;;;;;;;22.40;99.90;;;;;;5091458;28;20666;-67
2023/01/23 10:28:52;;;;;;;;;;;22.40;99.90;;;;;;5089351;28;19953;-66
2023/01/23 10:31:28;;;;;;;;;;;22.30;99.90;;;;;;5071323;28;20276;-67
2023/01/23 10:33:55;;;;;;;;;;;22.20;99.90;;;;;;5079072;28;19920;-67
2023/01/23 10:36:50;;;;;;;;;;;22.20;99.90;;;;;;5071180;28;19939;-66
2023/01/23 10:39:40;;;;;;;;;;;22.20;99.90;;;;;;5047330;28;19967;-66
2023/01/23 10:42:11;;;;;;;;;;;22.20;99.90;;;;;;5065569;28;19920;-65
2023/01/23 10:44:38;;;;;;;;;;;22.10;99.90;;;;;;5071302;28;20250;-64
2023/01/23 10:47:13;;;;;;;;;;;22.10;99.90;;;;;;5071763;28;19908;-65
2023/01/23 10:49:42;;;;;;;;;;;22.10;99.90;;;;;;5084045;28;20288;-66
2023/01/23 10:52:27;;;;;;;;;;;22.10;99.90;;;;;;5090469;28;19943;-65
2023/01/23 10:54:54;;;;;;;;;;;22.00;99.90;;;;;;5070662;28;19909;-64
2023/01/23 10:57:22;;;;;;;;;;;22.10;99.90;;;;;;5073378;28;19916;-64
2023/01/23 10:59:52;;;;;;;;;;;22.10;99.90;;;;;;5083027;28;19912;-63
2023/01/23 11:02:20;;;;;;;;;;;22.10;99.90;;;;;;5074311;28;20011;-67
2023/01/23 11:04:50;;;;;;;;;;;22.10;99.90;;;;;;5092949;28;19919;-68
2023/01/23 11:07:20;;;;;;;;;;;22.00;99.90;;;;;;5092280;28;19908;-67
2023/01/23 11:09:52;;;;;;;;;;;22.00;99.90;;;;;;5090657;28;19908;-67
2023/01/23 11:12:29;;;;;;;;;;;21.90;99.90;;;;;;5093276;28;19957;-67
2023/01/23 11:15:14;;;;;;;;;;;21.90;99.90;;;;;;5091489;28;19919;-66
2023/01/23 11:17:41;;;;;;;;;;;21.80;99.90;;;;;;5091783;28;19912;-69
2023/01/23 11:20:23;;;;;;;;;;;21.80;99.90;;;;;;5093219;28;20364;-67
2023/01/23 11:23:09;;;;;;;;;;;21.80;99.90;;;;;;5094401;28;20269;-66
2023/01/23 11:25:37;;;;;;;;;;;21.80;99.90;;;;;;5094271;28;20011;-67
2023/01/23 11:28:24;;;;;;;;;;;21.80;99.90;;;;;;5084087;28;19912;-68
2023/01/23 11:31:10;;;;;;;;;;;21.80;99.90;;;;;;5085797;28;19908;-66
2023/01/23 11:33:37;;;;;;;;;;;21.70;99.90;;;;;;5094148;28;19923;-68
2023/01/23 11:36:06;;;;;;;;;;;21.60;99.90;;;;;;5094034;28;19943;-68
2023/01/23 11:38:53;;;;;;;;;;;21.60;99.90;;;;;;5093247;28;20346;-69
2023/01/23 11:41:22;;;;;;;;;;;21.60;99.90;;;;;;5089851;28;20019;-67
2023/01/23 11:43:48;;;;;;;;;;;21.50;99.90;;;;;;5093030;28;19954;-68
2023/01/23 11:46:35;;;;;;;;;;;21.50;99.90;;;;;;5091595;28;20003;-69
2023/01/23 11:49:08;;;;;;;;;;;21.50;99.90;;;;;;5091139;28;20284;-68
2023/01/23 11:51:34;;;;;;;;;;;21.50;99.90;;;;;;5090781;28;19947;-68
2023/01/23 11:54:01;;;;;;;;;;;21.40;99.90;;;;;;5092906;28;19938;-65
2023/01/23 11:56:46;;;;;;;;;;;21.30;99.90;;;;;;5089936;28;19934;-65
2023/01/23 11:59:15;;;;;;;;;;;21.40;99.90;;;;;;5090024;28;20108;-67
2023/01/23 12:02:21;;;;;;;;;;;21.30;99.90;;;;;;5093852;28;20018;-68
2023/01/23 12:05:01;;;;;;;;;;;21.30;99.90;;;;;;5068102;28;19912;-67
2023/01/23 12:07:32;;;;;;;;;;;21.30;99.90;;;;;;5068131;28;19913;-67
2023/01/23 12:10:02;;;;;;;;;;;21.30;99.90;;;;;;5082195;28;19919;-66
2023/01/23 12:12:32;;;;;;;;;;;21.20;99.90;;;;;;5090750;28;20299;-67
2023/01/23 12:14:58;;;;;;;;;;;21.20;99.90;;;;;;5093331;28;20003;-65
2023/01/23 12:17:32;;;;;;;;;;;21.20;99.90;;;;;;5089983;28;19913;-65
2023/01/23 12:20:17;;;;;;;;;;;21.20;99.90;;;;;;5073797;28;20003;-65
2023/01/23 12:22:50;;;;;;;;;;;21.30;99.90;;;;;;5092180;28;19915;-67
2023/01/23 12:25:33;;;;;;;;;;;21.30;99.90;;;;;;5094039;28;19912;-65
2023/01/23 12:28:04;;;;;;;;;;;21.30;99.90;;;;;;5086012;28;19908;-64
2023/01/23 12:30:55;;;;;;;;;;;21.30;99.90;;;;;;5073316;28;19999;-66
2023/01/23 12:33:25;;;;;;;;;;;21.30;99.90;;;;;;5073345;28;19909;-66
2023/01/23 12:35:57;;;;;;;;;;;21.20;99.90;;;;;;5073080;28;20335;-67
2023/01/23 12:38:29;;;;;;;;;;;21.20;99.90;;;;;;5083555;28;19911;-67
2023/01/23 12:40:59;;;;;;;;;;;21.10;99.90;;;;;;5093355;28;19916;-66
2023/01/23 12:43:32;;;;;;;;;;;21.10;99.90;;;;;;5093474;28;19908;-67
2023/01/23 12:46:10;;;;;;;;;;;21.10;99.90;;;;;;5093604;28;20021;-65
2023/01/23 12:48:43;;;;;;;;;;;21.00;99.90;;;;;;5080655;28;19919;-66
2023/01/23 12:51:30;;;;;;;;;;;21.10;99.90;;;;;;5073117;28;19912;-66
2023/01/23 12:53:57;;;;;;;;;;;20.90;99.90;;;;;;5072837;28;20391;-66
2023/01/23 12:56:29;;;;;;;;;;;20.90;99.90;;;;;;5073386;28;19908;-65
2023/01/23 12:58:56;;;;;;;;;;;20.90;99.90;;;;;;5081423;28;19917;-66
2023/01/23 13:01:38;;;;;;;;;;;20.80;99.90;;;;;;5073130;28;19921;-67
2023/01/23 13:04:14;;;;;;;;;;;20.80;99.90;;;;;;5072925;28;19944;-67
2023/01/23 13:07:10;;;;;;;;;;;20.80;99.90;;;;;;5073129;28;20281;-67
2023/01/23 13:10:06;;;;;;;;;;;20.80;99.90;;;;;;5083845;28;19934;-66
2023/01/23 13:12:33;;;;;;;;;;;20.70;99.90;;;;;;5037601;28;19919;-68
2023/01/23 13:15:24;;;;;;;;;;;20.70;99.90;;;;;;5072743;28;20381;-66
2023/01/23 13:18:00;;;;;;;;;;;20.70;99.90;;;;;;5087408;28;19919;-65
2023/01/23 13:23:18;;;;;;;;;;;20.60;99.90;;;;;;5092879;28;19966;-67
2023/01/23 13:25:44;;;;;;;;;;;20.60;99.90;;;;;;5092385;28;19908;-68
2023/01/23 13:28:29;;;;;;;;;;;20.60;99.90;;;;;;5092344;28;19920;-70
2023/01/23 13:31:01;;;;;;;;;;;20.60;99.90;;;;;;5092960;28;19912;-67
2023/01/23 13:33:33;;;;;;;;;;;20.60;99.90;;;;;;5092786;28;19916;-66
2023/01/23 13:36:13;;;;;;;;;;;20.60;99.90;;;;;;5093383;28;19918;-66
2023/01/23 13:38:41;;;;;;;;;;;20.60;99.90;;;;;;5081235;28;19912;-65
2023/01/23 13:41:10;;;;;;;;;;;20.50;99.90;;;;;;5072538;28;20365;-65
2023/01/23 13:43:52;;;;;;;;;;;20.50;99.90;;;;;;5072512;28;19995;-65
2023/01/23 13:46:27;;;;;;;;;;;20.50;99.90;;;;;;5082856;28;19915;-65
2023/01/23 13:51:59;;;;;;;;;;;20.50;99.90;;;;;;5056488;28;20293;-65
2023/01/23 13:57:16;;;;;;;;;;;20.60;99.90;;;;;;5073973;28;20323;-67
2023/01/23 13:59:46;;;;;;;;;;;20.50;99.90;;;;;;5092363;28;20368;-67
2023/01/23 14:05:12;;;;;;;;;;;20.60;99.90;;;;;;5092304;28;20061;-66
2023/01/23 14:07:43;;;;;;;;;;;20.60;99.90;;;;;;5090563;28;19919;-65
2023/01/23 14:10:13;;;;;;;;;;;20.60;99.90;;;;;;5091437;28;19955;-66
2023/01/23 14:12:39;;;;;;;;;;;20.70;99.90;;;;;;5092076;28;20361;-66
2023/01/23 14:18:43;;;;;;;;;;;20.70;99.90;;;;;;5080588;28;20433;-67
2023/01/23 14:21:25;;;;;;;;;;;20.60;99.90;;;;;;5049338;28;19917;-66
2023/01/23 14:23:55;;;;;;;;;;;20.60;99.90;;;;;;5088357;28;20003;-67
2023/01/23 14:26:26;;;;;;;;;;;20.60;99.90;;;;;;5092651;28;19918;-66
2023/01/23 14:28:52;;;;;;;;;;;20.60;99.90;;;;;;5083376;28;19944;-67
2023/01/23 14:31:24;;;;;;;;;;;20.60;99.90;;;;;;5072388;28;19915;-63
2023/01/23 14:34:00;;;;;;;;;;;20.60;99.90;;;;;;5073004;28;20296;-67
2023/01/23 14:36:27;;;;;;;;;;;20.60;99.90;;;;;;5074363;28;19909;-67
2023/01/23 14:38:55;;;;;;;;;;;20.60;99.90;;;;;;5081258;28;19912;-66
2023/01/23 14:41:25;;;;;;;;;;;20.60;99.90;;;;;;5095833;28;19920;-66
2023/01/23 14:43:54;;;;;;;;;;;20.60;99.90;;;;;;5095013;28;19969;-65
2023/01/23 14:46:27;;;;;;;;;;;20.60;99.90;;;;;;5095547;28;19908;-65
2023/01/23 14:48:55;;;;;;;;;;;20.60;99.90;;;;;;5093099;28;19912;-66
2023/01/23 14:51:23;;;;;;;;;;;20.50;99.90;;;;;;5094379;28;19952;-66
2023/01/23 14:53:52;;;;;;;;;;;20.50;99.90;;;;;;5092275;28;20361;-66